Impacts METAR Board
IDs:

KERV - Kerrville Muni, TX, US

Updated at: 1300 UTC 14 Dec 2019
Potential Impact None Slight Moderate High
Time 14/01Z 14/02Z 14/03Z 14/04Z 14/05Z 14/06Z 14/07Z 14/08Z 14/09Z 14/10Z 14/11Z 14/12Z 14/13Z
Temp57 54 49 47 43 44 41 41 38 38 38 37 36
Dewpt38 38 38 39 37 38 36 36 34 33 34 33 32
Altim29.88 29.89 29.90 29.90 29.91 29.91 29.90 29.90 29.89 29.89 29.88 29.87 29.87
VIS10 10 10 10 10 10 10 10 10 10 10 10 10
CIG-- -- -- -- -- -- -- -- -- -- -- -- --
CoverCLRCLRCLRCLRCLRCLRCLRCLRCLRCLRCLRCLRCLR
FltCatVFRVFRVFRVFRVFRVFRVFRVFRVFRVFRVFRVFRVFR
WX--------------------------
WDir000360000000000
WSpd0 0 0 4 0 0 0 0 0 0 0 0 0
WGst-- -- -- -- -- -- -- -- -- -- -- -- --
Raw hourly METARs
KERV 140055Z AUTO 00000KT 10SM CLR 14/03 A2988 RMK AO2 T01370032
KERV 140155Z AUTO 00000KT 10SM CLR 12/04 A2989 RMK AO2 T01200036
KERV 140255Z AUTO 00000KT 10SM CLR 09/04 A2990 RMK AO2 T00920035
KERV 140355Z AUTO 36004KT 10SM CLR 08/04 A2990 RMK AO2 T00840037
KERV 140455Z AUTO 00000KT 10SM CLR 06/03 A2991 RMK AO2 T00590027
KERV 140555Z AUTO 00000KT 10SM CLR 07/04 A2991 RMK AO2 T00680035 10192 20058 402611002
KERV 140655Z AUTO 00000KT 10SM CLR 05/02 A2990 RMK AO2 T00490024
KERV 140755Z AUTO 00000KT 10SM CLR 05/02 A2990 RMK AO2 T00500023
KERV 140855Z AUTO 00000KT 10SM CLR 04/01 A2989 RMK AO2 T00360011
KERV 140955Z AUTO 00000KT 10SM CLR 03/01 A2989 RMK AO2 T00330006
KERV 141055Z AUTO 00000KT 10SM CLR 04/01 A2988 RMK AO2 T00360013
KERV 141155Z AUTO 00000KT 10SM CLR 03/01 A2987 RMK AO2 T00300007 10068 20022
KERV 141255Z AUTO 00000KT 10SM CLR 02/00 A2987 RMK AO2 T00220002



Page loaded:  13:32 UTC  |   05:32 AM Pacific  |   06:32 AM Mountain  |   07:32 AM Central  |   08:32 AM Eastern

 

ADVISORIES

FORECASTS

FORECASTS

OBSERVATIONS

USER TOOLS

ABOUT US